42 Max
22 km/h
11 Mini

LFMY 280100Z AUTO 01008KT 340V050 9999 BKN040 BKN052 OVC062 02/M03 Q1014

TAF LFMY 271420Z 2715/2815 CNL